Share

Naha City, Japan

Naha (ROAH) Elev 20 ft | 26.20 °N, 127.65 °E | Change Station

Current weather conditions updated 8 minutes ago

Mostly Cloudy
Mostly Cloudy
77 °F
Feels Like 77 °F
N
8
Wind Variable Wind from SW
Sunrise 6:01 AM
Sunset 6:55 PM
Moon Waning Gibbous

Tomorrow is forecast to be Cooler than today.

Pressure 29.86 in
Visibility 6.2 miles
Clouds Few 1500 ft
Mostly Cloudy 8000 ft
Dew Point 70 °F
Humidity 78%
Rainfall 0.00 in
Snow Depth Not available.
UV 2 out of 16
Pollen Not available.
Air Quality Not available.
Flu Activity Not available.
METAR ROAH 200730Z 23007KT 9999 FEW015 BKN080 25/21 Q1011

More Conditions Fewer Conditions

Pressure 29.86 in
Visibility 6.2 miles
Clouds Few 1500 ft
Mostly Cloudy 8000 ft
Dew Point 70 °F
Humidity 78%
Rainfall 0.00 in
Snow Depth Not available.
UV 2 out of 16
Pollen Not available.
Air Quality Not available.
Flu Activity Not available.
METAR ROAH 200730Z 23007KT 9999 FEW015 BKN080 25/21 Q1011

More Conditions Fewer Conditions

10-Day Weather Forecast

Almanac

Astronomy

Apr. 20, 2014 Rise Set
Actual Time 6:01 AM JST 6:55 PM JST
Civil Twilight 5:38 AM JST 7:19 PM JST
Nautical Twilight 5:10 AM JST 7:47 PM JST
Astronomical Twilight 4:41 AM JST 8:15 PM JST
Moon 11:45 PM JST 9:56 AM JST
Length of Visible Light 13h 40m
Length of Day
12h 53m
Tomorrow will be 1m 25s longer.
Waning Gibbous, 72% of the Moon is Illuminated
Today
Waning Gibbous
Apr 22
Last Quarter
Apr 29
New
May 6
First Quarter
May 14
Full

Yesterday's Extremes

Country Highs Country Lows

Community

  • Sunny day at the coast-Cape Arago Lighthouse
    Sunny day at the coast-Cape Arago Lighthouse
  • Cherry Blossoms
    Cherry Blossoms
  • White-Crowned Sparrow
    White-Crowned Sparrow
  • New Day
    New Day
  • Happy Easter!
    Happy Easter!

WunderPhotos

Upload Photos

1,703,084 photos uploaded!

WunderBlogs® & News

Nearby

Snow Depth

Not available.

Coastal Water Temperatures

Place Temperature
No Stations Reporting

Earthquake Activity

City Distance Mag. Time & Date
No recent earthquake activity has been reported nearby.
Minimum magnitude displayed is 2.5.

Nearby Weather Stations

Station Location Temp. Heat Index Dew Point Humidity Wind Precip. Elev Updated Type
Camp Hansen Range Control Okinawa Japan, Kin 76.8 °F 79 °F 66 °F 69% West  at  9.0 mph 0.00 in / hr 210 ft 4:36 PM JST Normal

Show More Stations Show Fewer Stations

What do you think?

We're not finished. Please let us know what you like, what you don't like, and what you are still missing.